Time;durP1;ratioP1;P1;durP2;ratioP2;P2;SDS_P1;SDS_P2;PMS_P1;PMS_P2;Temp;Humidity;BMP_temperature;BMP_pressure;BME280_temperature;BME280_humidity;BME280_pressure;Samples;Min_cycle;Max_cycle;Signal;HPM_P1;HPM_P2
2022/09/07 00:00:58;;;;;;;14.82;5.38;;;;;;;-145.67;100.00;66521.78;4946955;28;20031;-72
2022/09/07 00:03:23;;;;;;;14.23;5.13;;;;;;;-145.67;100.00;66521.78;4966872;28;20066;-73
2022/09/07 00:05:50;;;;;;;14.00;5.45;;;;;;;-145.67;100.00;66521.78;4921655;28;20077;-71
2022/09/07 00:08:20;;;;;;;16.65;5.95;;;;;;;-145.67;100.00;66521.78;4967008;28;20034;-72
2022/09/07 00:10:56;;;;;;;14.35;4.90;;;;;;;-145.67;100.00;66521.78;4966907;28;20035;-72
2022/09/07 00:13:22;;;;;;;19.42;5.80;;;;;;;-145.67;100.00;66521.78;4949449;28;20045;-73
2022/09/07 00:15:48;;;;;;;13.90;5.53;;;;;;;-145.67;100.00;66521.78;4965763;28;22253;-71
2022/09/07 00:18:13;;;;;;;12.02;5.65;;;;;;;-145.67;100.00;66521.78;4946965;28;20393;-72
2022/09/07 00:20:39;;;;;;;13.15;6.10;;;;;;;-145.67;100.00;66521.78;4947934;28;20023;-72
2022/09/07 00:23:04;;;;;;;13.50;6.60;;;;;;;-145.67;100.00;66521.78;4964143;28;20035;-73
2022/09/07 00:25:29;;;;;;;13.18;6.30;;;;;;;-145.67;100.00;66521.78;4966758;28;20042;-72
2022/09/07 00:27:55;;;;;;;16.27;7.03;;;;;;;-145.67;100.00;66521.78;4966491;28;20027;-73
2022/09/07 00:30:20;;;;;;;11.60;5.90;;;;;;;-145.67;100.00;66521.78;4948940;28;20046;-72
2022/09/07 00:32:46;;;;;;;12.20;5.75;;;;;;;-145.67;100.00;66521.78;4963323;28;20035;-71
2022/09/07 00:35:16;;;;;;;10.20;5.53;;;;;;;-145.67;100.00;66521.78;4961526;28;20038;-71
2022/09/07 00:37:41;;;;;;;15.55;6.20;;;;;;;-145.67;100.00;66521.78;4941153;28;20031;-71
2022/09/07 00:40:07;;;;;;;13.25;5.50;;;;;;;-145.67;100.00;66521.78;4966358;28;20392;-71
2022/09/07 00:42:39;;;;;;;14.35;5.47;;;;;;;-145.67;100.00;66521.78;4946579;28;20034;-72
2022/09/07 00:45:17;;;;;;;14.88;6.65;;;;;;;-145.67;100.00;66521.78;4955764;28;20042;-71
2022/09/07 00:47:47;;;;;;;16.65;6.57;;;;;;;-145.67;100.00;66521.78;4948783;28;20051;-70
2022/09/07 00:50:18;;;;;;;18.13;5.97;;;;;;;-145.67;100.00;66521.78;4931170;28;20496;-71
2022/09/07 00:52:47;;;;;;;13.80;5.27;;;;;;;-145.67;100.00;66521.78;4962904;28;20380;-71
2022/09/07 00:55:16;;;;;;;15.15;5.30;;;;;;;-145.67;100.00;66521.78;4944087;28;20167;-71
2022/09/07 00:57:45;;;;;;;14.68;5.43;;;;;;;-145.67;100.00;66521.78;4956880;28;20516;-71
2022/09/07 01:00:11;;;;;;;12.90;5.47;;;;;;;-145.67;100.00;66521.78;4957179;28;20404;-70
2022/09/07 01:02:39;;;;;;;18.48;6.43;;;;;;;-145.67;100.00;66521.78;4955831;28;20038;-71
2022/09/07 01:05:12;;;;;;;14.45;5.90;;;;;;;-145.67;100.00;66521.78;4938300;28;20057;-68
2022/09/07 01:07:37;;;;;;;10.75;4.75;;;;;;;-145.67;100.00;66521.78;4935134;28;20041;-69
2022/09/07 01:10:03;;;;;;;9.95;4.75;;;;;;;-145.67;100.00;66521.78;4955091;28;20046;-69
2022/09/07 01:12:29;;;;;;;11.65;4.90;;;;;;;-145.67;100.00;66521.78;4953987;28;20105;-70
2022/09/07 01:14:55;;;;;;;10.48;4.50;;;;;;;-145.67;100.00;66521.78;4953839;28;20623;-68
2022/09/07 01:17:35;;;;;;;10.25;4.40;;;;;;;-145.67;100.00;66521.78;4917585;28;20439;-69
2022/09/07 01:20:25;;;;;;;11.43;4.10;;;;;;;-145.67;100.00;66521.78;4952764;28;20083;-69
2022/09/07 01:23:03;;;;;;;8.07;4.25;;;;;;;-145.67;100.00;66521.78;4951588;28;20110;-69
2022/09/07 01:25:28;;;;;;;6.93;3.67;;;;;;;-145.67;100.00;66521.78;4934480;28;20078;-69
2022/09/07 01:28:05;;;;;;;7.57;4.00;;;;;;;-145.67;100.00;66521.78;4936076;28;20047;-69
2022/09/07 01:30:36;;;;;;;9.90;3.80;;;;;;;-145.67;100.00;66521.78;4950535;28;20035;-69
2022/09/07 01:33:11;;;;;;;8.48;3.90;;;;;;;-145.67;100.00;66521.78;4935840;28;20049;-69
2022/09/07 01:35:54;;;;;;;7.82;4.85;;;;;;;-145.67;100.00;66521.78;4945237;28;20054;-67
2022/09/07 01:38:38;;;;;;;11.82;4.78;;;;;;;-145.67;100.00;66521.78;4947247;28;20031;-68
2022/09/07 01:41:15;;;;;;;8.68;4.03;;;;;;;-145.67;100.00;66521.78;4946139;28;20404;-69
2022/09/07 01:44:01;;;;;;;10.95;3.45;;;;;;;-145.67;100.00;66521.78;4929255;28;20559;-67
2022/09/07 01:46:45;;;;;;;6.50;2.90;;;;;;;-145.67;100.00;66521.78;4930735;28;20055;-68
2022/09/07 01:49:17;;;;;;;7.20;2.92;;;;;;;-145.67;100.00;66521.78;4923632;28;20426;-68
2022/09/07 01:51:45;;;;;;;5.18;2.85;;;;;;;-145.67;100.00;66521.78;4925616;28;20098;-68
2022/09/07 01:54:21;;;;;;;6.72;2.65;;;;;;;-145.67;100.00;66521.78;4936857;28;20267;-67
2022/09/07 01:56:52;;;;;;;7.38;3.30;;;;;;;-145.67;100.00;66521.78;4943469;28;20063;-67
2022/09/07 01:59:24;;;;;;;6.65;3.15;;;;;;;-145.67;100.00;66521.78;4925974;28;20532;-67
2022/09/07 02:01:57;;;;;;;4.90;2.60;;;;;;;-145.67;100.00;66521.78;4942474;28;20030;-67
2022/09/07 02:04:39;;;;;;;5.20;2.35;;;;;;;-145.67;100.00;66521.78;4923706;28;20062;-67
2022/09/07 02:07:12;;;;;;;8.77;3.00;;;;;;;-145.67;100.00;66521.78;4923283;28;20031;-68
2022/09/07 02:10:16;;;;;;;5.75;2.78;;;;;;;-145.67;100.00;66521.78;4907648;28;20042;-68
2022/09/07 02:12:58;;;;;;;7.60;2.75;;;;;;;-145.67;100.00;66521.78;4920038;28;20239;-68
2022/09/07 02:15:45;;;;;;;3.92;1.90;;;;;;;-145.67;100.00;66521.78;4943178;28;20559;-67
2022/09/07 02:18:14;;;;;;;5.55;2.30;;;;;;;-145.67;100.00;66521.78;4925192;28;20093;-68
2022/09/07 02:20:43;;;;;;;4.00;2.08;;;;;;;-145.67;100.00;66521.78;4929587;28;20042;-68
2022/09/07 02:23:16;;;;;;;5.15;2.03;;;;;;;-145.67;100.00;66521.78;4945462;28;20039;-68
2022/09/07 02:25:50;;;;;;;5.53;1.80;;;;;;;-145.67;100.00;66521.78;4925475;28;20039;-67
2022/09/07 02:28:29;;;;;;;4.38;1.73;;;;;;;-145.67;100.00;66521.78;4930944;28;20564;-68
2022/09/07 02:30:54;;;;;;;4.55;1.67;;;;;;;-145.67;100.00;66521.78;4928532;28;20046;-67
2022/09/07 02:33:20;;;;;;;3.33;1.70;;;;;;;-145.67;100.00;66521.78;4931116;28;20047;-68
2022/09/07 02:35:46;;;;;;;4.15;2.13;;;;;;;-145.67;100.00;66521.78;4949243;28;20498;-68
2022/09/07 02:38:11;;;;;;;4.78;2.10;;;;;;;-145.67;100.00;66521.78;4945879;28;20030;-68
2022/09/07 02:40:37;;;;;;;5.93;2.53;;;;;;;-145.67;100.00;66521.78;4946034;28;20114;-68
2022/09/07 02:43:10;;;;;;;5.43;2.42;;;;;;;-145.67;100.00;66521.78;4947776;28;20647;-69
2022/09/07 02:46:00;;;;;;;5.60;2.30;;;;;;;-145.67;100.00;66521.78;4950047;28;20043;-69
2022/09/07 02:48:30;;;;;;;;;;;;;;;-145.67;100.00;66521.78;4951158;28;20137;-70
2022/09/07 02:51:08;;;;;;;5.05;2.50;;;;;;;-145.67;100.00;66521.78;4938734;28;20445;-70
2022/09/07 02:53:37;;;;;;;4.90;2.83;;;;;;;-145.67;100.00;66521.78;4950683;28;20043;-70
2022/09/07 02:56:41;;;;;;;10.95;3.65;;;;;;;-145.67;100.00;66521.78;4910261;28;21665;-71
2022/09/07 02:59:30;;;;;;;10.20;4.88;;;;;;;-145.67;100.00;66521.78;4905433;29;20032;-71
2022/09/07 03:02:16;;;;;;;6.60;3.38;;;;;;;-145.67;100.00;66521.78;4887799;29;20136;-71
2022/09/07 03:04:53;;;;;;;7.95;3.30;;;;;;;-145.67;100.00;66521.78;4934522;28;20062;-72
2022/09/07 03:07:23;;;;;;;4.68;2.67;;;;;;;-145.67;100.00;66521.78;4964132;28;20031;-71
2022/09/07 03:09:52;;;;;;;4.75;2.30;;;;;;;-145.67;100.00;66521.78;4954836;28;20178;-70
2022/09/07 03:12:17;;;;;;;3.70;2.17;;;;;;;-145.67;100.00;66521.78;4942856;28;20030;-71
2022/09/07 03:14:43;;;;;;;3.47;1.90;;;;;;;-145.67;100.00;66521.78;4941068;28;20023;-70
2022/09/07 03:17:11;;;;;;;3.08;2.15;;;;;;;-145.67;100.00;66521.78;4934264;28;20031;-71
2022/09/07 03:19:36;;;;;;;6.03;2.58;;;;;;;-145.67;100.00;66521.78;4948966;28;20030;-71
2022/09/07 03:22:03;;;;;;;4.03;2.40;;;;;;;-145.67;100.00;66521.78;4948142;28;20034;-70
2022/09/07 03:24:28;;;;;;;4.93;2.60;;;;;;;-145.67;100.00;66521.78;4949289;28;20070;-70
2022/09/07 03:26:54;;;;;;;8.75;2.60;;;;;;;-145.67;100.00;66521.78;4948097;28;20039;-69
2022/09/07 03:29:19;;;;;;;5.35;3.22;;;;;;;-145.67;100.00;66521.78;4944674;28;20090;-71
2022/09/07 03:31:45;;;;;;;6.35;3.30;;;;;;;-145.67;100.00;66521.78;4943979;28;20039;-71
2022/09/07 03:34:11;;;;;;;7.28;2.58;;;;;;;-145.67;100.00;66521.78;4949394;28;20123;-70
2022/09/07 03:36:37;;;;;;;5.32;2.70;;;;;;;-145.67;100.00;66521.78;4946956;28;20035;-70
2022/09/07 03:39:03;;;;;;;6.05;2.60;;;;;;;-145.67;100.00;66521.78;4949224;28;20186;-71
2022/09/07 03:41:31;;;;;;;5.75;2.65;;;;;;;-145.67;100.00;66521.78;4945972;28;20553;-70
2022/09/07 03:44:02;;;;;;;5.55;3.10;;;;;;;-145.67;100.00;66521.78;4927252;28;20039;-69
2022/09/07 03:46:28;;;;;;;6.28;4.35;;;;;;;-145.67;100.00;66521.78;4944761;28;20350;-70
2022/09/07 03:48:53;;;;;;;8.23;4.18;;;;;;;-145.67;100.00;66521.78;4948524;28;20097;-70
2022/09/07 03:51:18;;;;;;;7.20;4.60;;;;;;;-145.67;100.00;66521.78;4948219;28;20063;-70
2022/09/07 03:53:45;;;;;;;10.55;7.43;;;;;;;-145.67;100.00;66521.78;4945929;28;20089;-69
2022/09/07 03:56:19;;;;;;;11.15;8.75;;;;;;;-145.67;100.00;66521.78;4930700;28;20038;-70
2022/09/07 03:58:45;;;;;;;13.82;8.65;;;;;;;-145.67;100.00;66521.78;4945698;28;20121;-70
2022/09/07 04:01:15;;;;;;;11.52;7.85;;;;;;;-145.67;100.00;66521.78;4932070;28;20039;-69
2022/09/07 04:03:41;;;;;;;14.02;8.07;;;;;;;-145.67;100.00;66521.78;4943582;28;20118;-69
2022/09/07 04:06:07;;;;;;;12.18;7.30;;;;;;;-145.67;100.00;66521.78;4910790;28;20109;-69
2022/09/07 04:08:34;;;;;;;13.32;7.50;;;;;;;-145.67;100.00;66521.78;4944900;28;20054;-69
2022/09/07 04:11:01;;;;;;;9.90;6.80;;;;;;;-145.67;100.00;66521.78;4945077;28;20109;-69
2022/09/07 04:13:27;;;;;;;13.75;7.80;;;;;;;-145.67;100.00;66521.78;4925779;28;20050;-70
2022/09/07 04:15:53;;;;;;;12.43;8.30;;;;;;;-145.67;100.00;66521.78;4926551;28;20054;-68
2022/09/07 04:18:19;;;;;;;16.77;10.15;;;;;;;-145.67;100.00;66521.78;4939305;28;20027;-69
2022/09/07 04:20:49;;;;;;;18.92;9.80;;;;;;;-145.67;100.00;66521.78;4942508;28;20041;-68
2022/09/07 04:23:16;;;;;;;13.70;9.57;;;;;;;-145.67;100.00;66521.78;4928541;28;20035;-69
2022/09/07 04:25:48;;;;;;;17.95;9.70;;;;;;;-145.67;100.00;66521.78;4938812;28;20522;-69
2022/09/07 04:28:15;;;;;;;16.98;8.93;;;;;;;-145.67;100.00;66521.78;4939706;28;20495;-69
2022/09/07 04:30:40;;;;;;;12.35;7.95;;;;;;;-145.67;100.00;66521.78;4913241;28;20070;-69
2022/09/07 04:33:06;;;;;;;11.80;8.15;;;;;;;-145.67;100.00;66521.78;4944521;28;20039;-70
2022/09/07 04:35:35;;;;;;;16.25;8.85;;;;;;;-145.67;100.00;66521.78;4928425;28;20058;-70
2022/09/07 04:38:04;;;;;;;19.08;9.75;;;;;;;-145.67;100.00;66521.78;4942036;28;20198;-69
2022/09/07 04:40:29;;;;;;;19.45;10.52;;;;;;;-145.67;100.00;66521.78;4923898;28;20389;-69
2022/09/07 04:42:54;;;;;;;17.80;10.55;;;;;;;-145.67;100.00;66521.78;4944477;28;20035;-70
2022/09/07 04:45:20;;;;;;;19.30;11.95;;;;;;;-145.67;100.00;66521.78;4942099;28;20231;-69
2022/09/07 04:47:48;;;;;;;16.42;9.45;;;;;;;-145.67;100.00;66521.78;4943981;28;20138;-69
2022/09/07 04:50:15;;;;;;;14.32;9.05;;;;;;;-145.67;100.00;66521.78;4944890;28;20046;-68
2022/09/07 04:52:41;;;;;;;17.75;9.90;;;;;;;-145.67;100.00;66521.78;4942864;28;20058;-69
2022/09/07 04:55:07;;;;;;;16.00;10.88;;;;;;;-145.67;100.00;66521.78;4944325;28;20043;-69
2022/09/07 04:57:33;;;;;;;24.85;17.92;;;;;;;-145.67;100.00;66521.78;4943261;28;20039;-69
2022/09/07 04:59:59;;;;;;;29.17;23.77;;;;;;;-145.67;100.00;66521.78;4945317;28;20093;-69
2022/09/07 05:02:24;;;;;;;21.90;13.15;;;;;;;-145.67;100.00;66521.78;4944650;28;20584;-69
2022/09/07 05:04:49;;;;;;;23.23;11.85;;;;;;;-145.67;100.00;66521.78;4942313;28;20047;-68
2022/09/07 05:07:15;;;;;;;19.27;11.20;;;;;;;-145.67;100.00;66521.78;4943256;28;20126;-68
2022/09/07 05:09:40;;;;;;;28.33;18.75;;;;;;;-145.67;100.00;66521.78;4925393;28;20118;-69
2022/09/07 05:12:06;;;;;;;21.30;14.18;;;;;;;-145.67;100.00;66521.78;4915758;28;20168;-69
2022/09/07 05:14:31;;;;;;;18.80;9.70;;;;;;;-145.67;100.00;66521.78;4924756;28;20355;-69
2022/09/07 05:16:57;;;;;;;18.77;9.95;;;;;;;-145.67;100.00;66521.78;4927262;28;20062;-69
2022/09/07 05:19:23;;;;;;;19.27;11.52;;;;;;;-145.67;100.00;66521.78;4927715;28;20157;-69
2022/09/07 05:21:48;;;;;;;26.35;13.77;;;;;;;-145.67;100.00;66521.78;4928937;28;20668;-68
2022/09/07 05:24:16;;;;;;;19.25;10.98;;;;;;;-145.67;100.00;66521.78;4942799;28;20061;-68
2022/09/07 05:27:41;;;;;;;19.38;11.40;;;;;;;-145.67;100.00;66521.78;4927549;28;20041;-69
2022/09/07 05:31:06;;;;;;;23.02;12.20;;;;;;;-145.67;100.00;66521.78;4928854;28;20047;-68
2022/09/07 05:34:32;;;;;;;25.25;12.85;;;;;;;-145.67;100.00;66521.78;4922126;28;20062;-68
2022/09/07 05:37:59;;;;;;;25.70;13.73;;;;;;;-145.67;100.00;66521.78;4942434;28;20047;-68
2022/09/07 05:41:27;;;;;;;29.88;14.73;;;;;;;-145.67;100.00;66521.78;4923580;28;20051;-69
2022/09/07 05:44:54;;;;;;;18.65;11.55;;;;;;;-145.67;100.00;66521.78;4930899;28;20047;-69
2022/09/07 05:48:18;;;;;;;25.38;12.50;;;;;;;-145.67;100.00;66521.78;4942767;28;20067;-68
2022/09/07 05:51:51;;;;;;;19.05;8.85;;;;;;;-145.67;100.00;66521.78;4942162;28;20054;-68
2022/09/07 05:55:15;;;;;;;20.48;11.50;;;;;;;-145.67;100.00;66521.78;4931092;28;20054;-68
2022/09/07 05:58:41;;;;;;;21.52;11.52;;;;;;;-145.67;100.00;66521.78;4924962;28;20142;-69
2022/09/07 06:02:13;;;;;;;25.55;12.77;;;;;;;-145.67;100.00;66521.78;4930130;28;20378;-69
2022/09/07 06:05:37;;;;;;;22.57;12.50;;;;;;;-145.67;100.00;66521.78;4924938;28;20508;-68
2022/09/07 06:09:01;;;;;;;19.80;11.95;;;;;;;-145.67;100.00;66521.78;4947266;28;20310;-68
2022/09/07 06:12:25;;;;;;;25.92;14.15;;;;;;;-145.67;100.00;66521.78;4945660;28;21218;-67
2022/09/07 06:15:49;;;;;;;19.48;11.95;;;;;;;-145.67;100.00;66521.78;4923362;28;20073;-68
2022/09/07 06:19:13;;;;;;;17.73;10.40;;;;;;;-145.67;100.00;66521.78;4929987;28;20039;-68
2022/09/07 06:22:37;;;;;;;18.98;12.07;;;;;;;-145.67;100.00;66521.78;4944729;28;20042;-68
2022/09/07 06:26:02;;;;;;;22.63;11.20;;;;;;;-145.67;100.00;66521.78;4944027;28;20090;-68
2022/09/07 06:29:29;;;;;;;21.35;11.80;;;;;;;-145.67;100.00;66521.78;4927857;28;20047;-68
2022/09/07 06:32:53;;;;;;;29.75;19.13;;;;;;;-145.67;100.00;66521.78;4945076;28;20105;-67
2022/09/07 06:36:18;;;;;;;27.75;17.88;;;;;;;-145.67;100.00;66521.78;4923865;28;20124;-68
2022/09/07 06:39:42;;;;;;;26.10;18.65;;;;;;;-145.67;100.00;66521.78;4944760;28;20520;-68
2022/09/07 06:43:06;;;;;;;22.38;16.48;;;;;;;-145.67;100.00;66521.78;4908881;28;20679;-67
2022/09/07 06:46:30;;;;;;;25.63;17.95;;;;;;;-145.67;100.00;66521.78;4942930;28;20452;-67
2022/09/07 06:49:54;;;;;;;29.35;17.92;;;;;;;-145.67;100.00;66521.78;4943972;28;20065;-68
2022/09/07 06:53:20;;;;;;;35.70;19.77;;;;;;;-145.67;100.00;66521.78;4943945;28;20070;-67
2022/09/07 06:56:46;;;;;;;36.70;19.30;;;;;;;-145.67;100.00;66521.78;4927039;28;20138;-67
2022/09/07 07:00:11;;;;;;;29.25;14.85;;;;;;;-145.67;100.00;66521.78;4926660;28;20492;-68
2022/09/07 07:03:35;;;;;;;28.50;13.13;;;;;;;-145.67;100.00;66521.78;4926491;28;20058;-68
2022/09/07 07:06:59;;;;;;;23.75;9.05;;;;;;;-145.67;100.00;66521.78;4924925;28;20054;-68
2022/09/07 07:10:27;;;;;;;18.85;8.20;;;;;;;-145.67;100.00;66521.78;4926905;28;20039;-68
2022/09/07 07:13:52;;;;;;;19.25;7.35;;;;;;;-145.67;100.00;66521.78;4908793;28;20859;-66
2022/09/07 07:17:18;;;;;;;21.58;6.90;;;;;;;-145.67;100.00;66521.78;4925927;28;20047;-67
2022/09/07 07:20:43;;;;;;;20.67;7.03;;;;;;;-145.67;100.00;66521.78;4897466;28;20043;-67
2022/09/07 07:24:09;;;;;;;19.13;6.35;;;;;;;-145.67;100.00;66521.78;4925464;28;20043;-67
2022/09/07 07:27:33;;;;;;;18.70;7.40;;;;;;;-145.67;100.00;66521.78;4925321;28;20085;-67
2022/09/07 07:30:58;;;;;;;5.28;3.20;;;;;;;-145.67;100.00;66521.78;4939308;28;20047;-68
2022/09/07 07:34:22;;;;;;;8.65;3.80;;;;;;;-145.67;100.00;66521.78;4926020;28;20047;-66
2022/09/07 07:37:47;;;;;;;6.03;4.32;;;;;;;-145.67;100.00;66521.78;4923118;28;20576;-67
2022/09/07 07:41:14;;;;;;;12.27;4.45;;;;;;;-145.67;100.00;66521.78;4919497;28;20177;-66
2022/09/07 07:44:38;;;;;;;5.43;2.70;;;;;;;-145.67;100.00;66521.78;4925472;28;20154;-67
2022/09/07 07:48:04;;;;;;;7.68;3.08;;;;;;;-145.67;100.00;66521.78;4919489;28;20067;-66
2022/09/07 07:51:28;;;;;;;9.38;4.22;;;;;;;-145.67;100.00;66521.78;4925243;28;20050;-68
2022/09/07 07:54:52;;;;;;;8.20;3.58;;;;;;;-145.67;100.00;66521.78;4924048;28;20047;-67
2022/09/07 07:58:16;;;;;;;8.95;3.38;;;;;;;-145.67;100.00;66521.78;4943641;28;20042;-67
2022/09/07 08:01:42;;;;;;;5.50;2.70;;;;;;;-145.67;100.00;66521.78;4927424;28;20081;-66
2022/09/07 08:05:06;;;;;;;6.45;3.10;;;;;;;-145.67;100.00;66521.78;4922212;28;20050;-68
2022/09/07 08:08:30;;;;;;;4.95;2.75;;;;;;;-145.67;100.00;66521.78;4943750;28;20047;-65
2022/09/07 08:11:57;;;;;;;4.47;2.33;;;;;;;-145.67;100.00;66521.78;4943657;28;20042;-66
2022/09/07 08:15:21;;;;;;;4.57;2.97;;;;;;;-145.67;100.00;66521.78;4922198;28;20061;-67
2022/09/07 08:18:48;;;;;;;7.07;3.10;;;;;;;-145.67;100.00;66521.78;4942681;28;20060;-65
2022/09/07 08:22:14;;;;;;;6.32;3.38;;;;;;;-145.67;100.00;66521.78;4942949;28;20042;-67
2022/09/07 08:25:47;;;;;;;5.20;4.13;;;;;;;-145.67;100.00;66521.78;4926222;28;20049;-66
2022/09/07 08:29:11;;;;;;;6.22;4.07;;;;;;;-145.67;100.00;66521.78;4925475;28;20519;-67
2022/09/07 08:32:35;;;;;;;6.18;4.25;;;;;;;-145.67;100.00;66521.78;4942541;28;20661;-66
2022/09/07 08:36:02;;;;;;;7.13;4.57;;;;;;;-145.67;100.00;66521.78;4920994;28;20076;-65
2022/09/07 08:39:28;;;;;;;5.55;4.93;;;;;;;-145.67;100.00;66521.78;4942557;28;20527;-66
2022/09/07 08:43:28;;;;;;;7.10;5.60;;;;;;;-145.67;100.00;66521.78;4942570;28;20530;-66
2022/09/07 08:47:17;;;;;;;7.22;5.93;;;;;;;-145.67;100.00;66521.78;4909174;28;20577;-68
2022/09/07 08:50:56;;;;;;;9.50;6.55;;;;;;;-145.67;100.00;66521.78;4941756;28;20043;-66
2022/09/07 08:54:23;;;;;;;8.52;7.28;;;;;;;-145.67;100.00;66521.78;4942571;28;20043;-67
2022/09/07 08:57:57;;;;;;;10.50;7.10;;;;;;;-145.67;100.00;66521.78;4925576;28;20310;-65
2022/09/07 09:00:55;;;;;;;7.68;6.95;;;;;;;-145.67;100.00;66521.78;4926452;28;20046;-66
2022/09/07 09:03:32;;;;;;;8.35;6.75;;;;;;;-145.67;100.00;66521.78;4941587;28;20136;-66
2022/09/07 09:06:05;;;;;;;9.68;8.10;;;;;;;-145.67;100.00;66521.78;4905698;28;20807;-65
2022/09/07 09:08:39;;;;;;;8.50;7.45;;;;;;;-145.67;100.00;66521.78;4910111;28;20035;-65
2022/09/07 09:11:23;;;;;;;8.95;7.70;;;;;;;-145.67;100.00;66521.78;4942606;28;20035;-66
2022/09/07 09:14:07;;;;;;;10.88;8.63;;;;;;;-145.67;100.00;66521.78;4926253;28;22020;-66
2022/09/07 09:16:41;;;;;;;8.70;7.80;;;;;;;-145.67;100.00;66521.78;4943448;28;20507;-66
2022/09/07 09:19:36;;;;;;;9.43;8.35;;;;;;;-145.67;100.00;66521.78;4941995;28;20042;-65
2022/09/07 09:22:14;;;;;;;8.18;7.38;;;;;;;-145.67;100.00;66521.78;4941233;28;20049;-65
2022/09/07 09:25:00;;;;;;;9.48;8.48;;;;;;;-145.67;100.00;66521.78;4941139;28;20053;-65
2022/09/07 09:27:27;;;;;;;9.23;6.93;;;;;;;-145.67;100.00;66521.78;4906883;28;20071;-66
2022/09/07 09:29:56;;;;;;;8.23;6.82;;;;;;;-145.67;100.00;66521.78;4941765;28;20101;-66
2022/09/07 09:32:42;;;;;;;6.95;6.15;;;;;;;-145.67;100.00;66521.78;4942565;28;20031;-67
2022/09/07 09:35:28;;;;;;;6.97;5.53;;;;;;;-145.67;100.00;66521.78;4941467;28;20034;-67
2022/09/07 09:37:56;;;;;;;8.57;5.57;;;;;;;-145.67;100.00;66521.78;4922467;28;20093;-65
2022/09/07 09:44:52;;;;;;;7.28;4.97;;;;;;;-145.67;100.00;66521.78;4943482;28;20045;-67
2022/09/07 09:47:31;;;;;;;5.63;4.30;;;;;;;-145.67;100.00;66521.78;4943751;28;20074;-65
2022/09/07 09:49:59;;;;;;;7.38;5.03;;;;;;;-145.67;100.00;66521.78;4940802;28;20035;-65
2022/09/07 09:52:27;;;;;;;7.57;4.53;;;;;;;-145.67;100.00;66521.78;4928008;28;20035;-64
2022/09/07 09:54:55;;;;;;;7.38;4.28;;;;;;;-145.67;100.00;66521.78;4920144;28;20055;-66
2022/09/07 09:57:48;;;;;;;9.07;4.85;;;;;;;-145.67;100.00;66521.78;4904962;28;20049;-65
2022/09/07 10:00:19;;;;;;;8.32;4.60;;;;;;;-145.67;100.00;66521.78;4941428;28;20042;-66
2022/09/07 10:02:59;;;;;;;8.90;4.65;;;;;;;-145.67;100.00;66521.78;4942056;28;20516;-66
2022/09/07 10:05:38;;;;;;;6.80;3.65;;;;;;;-145.67;100.00;66521.78;4941502;28;20117;-65
2022/09/07 10:08:27;;;;;;;7.72;3.08;;;;;;;-145.67;100.00;66521.78;4925407;28;20085;-65
2022/09/07 10:11:03;;;;;;;6.65;3.20;;;;;;;-145.67;100.00;66521.78;4940686;28;20034;-65
2022/09/07 10:13:34;;;;;;;6.80;2.97;;;;;;;-145.67;100.00;66521.78;4940420;28;20529;-65
2022/09/07 10:16:07;;;;;;;6.55;2.60;;;;;;;-145.67;100.00;66521.78;4942066;28;20051;-65
2022/09/07 10:18:40;;;;;;;5.90;2.50;;;;;;;-145.67;100.00;66521.78;4940757;28;20035;-65
2022/09/07 10:21:28;;;;;;;7.93;2.70;;;;;;;-145.67;100.00;66521.78;4905798;28;20150;-65
2022/09/07 10:24:04;;;;;;;9.55;2.80;;;;;;;-145.67;100.00;66521.78;4942181;28;20035;-65
2022/09/07 10:26:32;;;;;;;6.85;2.42;;;;;;;-145.67;100.00;66521.78;4960117;28;20134;-65
2022/09/07 10:29:15;;;;;;;8.45;2.38;;;;;;;-145.67;100.00;66521.78;4933796;28;20034;-67
2022/09/07 10:32:06;;;;;;;7.68;2.05;;;;;;;-145.67;100.00;66521.78;4954129;28;20605;-66
2022/09/07 10:34:55;;;;;;;5.70;1.90;;;;;;;-145.67;100.00;66521.78;4954968;28;20023;-66
2022/09/07 10:38:15;;;;;;;8.57;1.98;;;;;;;-145.67;100.00;66521.78;4934361;28;20045;-66
2022/09/07 10:40:54;;;;;;;5.40;1.80;;;;;;;-145.67;100.00;66521.78;4890095;29;20036;-66
2022/09/07 10:43:42;;;;;;;7.90;1.98;;;;;;;-145.67;100.00;66521.78;4952445;28;20039;-66
2022/09/07 10:46:13;;;;;;;8.75;2.25;;;;;;;-145.67;100.00;66521.78;4968308;28;20045;-65
2022/09/07 10:48:42;;;;;;;7.72;2.55;;;;;;;-145.67;100.00;66521.78;4942091;28;20085;-66
2022/09/07 10:51:22;;;;;;;7.93;2.20;;;;;;;-145.67;100.00;66521.78;4976819;28;20042;-64
2022/09/07 10:53:59;;;;;;;6.20;2.45;;;;;;;-145.67;100.00;66521.78;4956229;28;20562;-65
2022/09/07 10:56:37;;;;;;;8.77;2.50;;;;;;;-145.67;100.00;66521.78;4964270;28;20074;-66
2022/09/07 10:59:03;;;;;;;9.40;2.72;;;;;;;-145.67;100.00;66521.78;4953426;28;20038;-65
2022/09/07 11:01:34;;;;;;;7.45;2.50;;;;;;;-145.67;100.00;66521.78;4968337;28;20092;-64
2022/09/07 11:04:09;;;;;;;9.48;2.90;;;;;;;-145.67;100.00;66521.78;4964043;28;20192;-64
2022/09/07 11:06:47;;;;;;;7.75;3.00;;;;;;;-145.67;100.00;66521.78;4968989;28;20046;-65
2022/09/07 11:09:19;;;;;;;10.10;3.30;;;;;;;-145.67;100.00;66521.78;4952939;28;20058;-64
2022/09/07 11:12:05;;;;;;;;;;;;;;;-145.67;100.00;66521.78;4960458;28;20507;-66
2022/09/07 11:14:38;;;;;;;6.93;3.20;;;;;;;-145.67;100.00;66521.78;4944414;28;19957;-65
2022/09/07 11:17:15;;;;;;;8.85;3.15;;;;;;;-145.67;100.00;66521.78;4952689;28;20037;-66
2022/09/07 11:19:49;;;;;;;8.27;2.88;;;;;;;-145.67;100.00;66521.78;4968123;28;20034;-65
2022/09/07 11:22:25;;;;;;;7.95;2.88;;;;;;;-145.67;100.00;66521.78;4948744;28;20086;-65
2022/09/07 11:25:03;;;;;;;8.95;2.90;;;;;;;-145.67;100.00;66521.78;4949773;28;20535;-65
2022/09/07 11:27:34;;;;;;;9.27;2.58;;;;;;;-145.67;100.00;66521.78;4951742;28;20035;-65
2022/09/07 11:30:03;;;;;;;;;;;;;;;-145.67;100.00;66521.78;4951453;28;20065;-63
2022/09/07 11:32:31;;;;;;;9.02;2.35;;;;;;;-145.67;100.00;66521.78;4968192;28;19914;-65
2022/09/07 11:35:05;;;;;;;11.65;2.60;;;;;;;-145.67;100.00;66521.78;4951468;28;20510;-66
2022/09/07 11:37:40;;;;;;;9.55;2.60;;;;;;;-145.67;100.00;66521.78;4966910;28;20037;-64
2022/09/07 11:40:20;;;;;;;11.43;2.70;;;;;;;-145.67;100.00;66521.78;4935513;28;20424;-64
2022/09/07 11:42:54;;;;;;;8.52;2.60;;;;;;;-145.67;100.00;66521.78;4955477;28;20271;-64
2022/09/07 11:45:56;;;;;;;10.05;2.83;;;;;;;-145.67;100.00;66521.78;4950346;28;20041;-65
2022/09/07 11:48:39;;;;;;;8.55;2.50;;;;;;;-145.67;100.00;66521.78;4925726;28;20031;-65
2022/09/07 11:51:41;;;;;;;9.27;2.90;;;;;;;-145.67;100.00;66521.78;4919850;28;20043;-65
2022/09/07 11:54:38;;;;;;;8.85;3.05;;;;;;;-145.67;100.00;66521.78;4921914;28;20047;-65
2022/09/07 11:57:22;;;;;;;11.18;3.20;;;;;;;-145.67;100.00;66521.78;4936065;28;20527;-65
2022/09/07 12:00:10;;;;;;;8.98;2.38;;;;;;;-145.67;100.00;66521.78;4930619;28;20769;-64
2022/09/07 12:03:06;;;;;;;8.40;2.42;;;;;;;-145.67;100.00;66521.78;4944059;28;20041;-66
2022/09/07 12:05:57;;;;;;;7.70;2.22;;;;;;;-145.67;100.00;66521.78;4922002;28;20051;-66
2022/09/07 12:08:25;;;;;;;10.45;2.50;;;;;;;-145.67;100.00;66521.78;4943831;28;20054;-64
2022/09/07 12:11:08;;;;;;;6.50;2.30;;;;;;;-145.67;100.00;66521.78;4938022;28;20035;-64
2022/09/07 12:13:39;;;;;;;10.02;2.38;;;;;;;-145.67;100.00;66521.78;4926997;28;20149;-65
2022/09/07 12:16:34;;;;;;;7.68;2.72;;;;;;;-145.67;100.00;66521.78;4943343;28;20038;-65
2022/09/07 12:19:15;;;;;;;11.20;2.65;;;;;;;-145.67;100.00;66521.78;4942893;28;20995;-65
2022/09/07 12:21:42;;;;;;;8.65;2.08;;;;;;;-145.67;100.00;66521.78;4942954;28;20039;-64
2022/09/07 12:24:34;;;;;;;10.23;2.92;;;;;;;-145.67;100.00;66521.78;4942339;28;20322;-67
2022/09/07 12:27:01;;;;;;;11.02;2.90;;;;;;;-145.67;100.00;66521.78;4926311;28;20145;-65
2022/09/07 12:29:28;;;;;;;10.18;2.65;;;;;;;-145.67;100.00;66521.78;4943595;28;20043;-66
2022/09/07 12:32:02;;;;;;;8.10;2.55;;;;;;;-145.67;100.00;66521.78;4906504;28;20235;-64